Time;durP1;ratioP1;P1;durP2;ratioP2;P2;SDS_P1;SDS_P2;PMS_P1;PMS_P2;Temp;Humidity;BMP_temperature;BMP_pressure;BME280_temperature;BME280_humidity;BME280_pressure;Samples;Min_cycle;Max_cycle;Signal;HPM_P1;HPM_P2
2023/10/28 00:00:17;;;;;;;4.20;3.80;;;10.20;99.90;;;;;;5075980;28;20036;-68
2023/10/28 00:02:44;;;;;;;4.25;3.85;;;10.20;99.90;;;;;;5075662;28;20094;-68
2023/10/28 00:05:09;;;;;;;3.85;3.10;;;10.20;99.90;;;;;;5075749;28;20500;-68
2023/10/28 00:07:35;;;;;;;5.07;4.57;;;10.20;99.90;;;;;;5074236;28;20088;-68
2023/10/28 00:10:02;;;;;;;5.35;4.85;;;10.20;99.90;;;;;;5075515;28;20032;-68
2023/10/28 00:12:28;;;;;;;4.50;4.10;;;10.70;99.90;;;;;;5074665;28;20044;-69
2023/10/28 00:14:54;;;;;;;4.88;4.47;;;10.20;99.90;;;;;;5075444;28;20028;-68
2023/10/28 00:17:20;;;;;;;4.70;4.30;;;10.20;99.90;;;;;;5074453;28;20093;-68
2023/10/28 00:19:46;;;;;;;4.47;4.07;;;10.20;99.90;;;;;;5074042;28;20123;-69
2023/10/28 00:22:12;;;;;;;4.90;4.50;;;10.30;99.90;;;;;;5090241;28;20102;-69
2023/10/28 00:24:41;;;;;;;4.50;4.10;;;10.20;99.90;;;;;;5074019;28;20416;-68
2023/10/28 00:27:08;;;;;;;4.80;4.40;;;10.30;99.90;;;;;;5074197;28;20049;-68
2023/10/28 00:29:34;;;;;;;5.18;4.68;;;10.20;99.90;;;;;;5074293;28;20488;-68
2023/10/28 00:31:59;;;;;;;4.65;4.25;;;10.50;99.90;;;;;;5073824;28;20045;-68
2023/10/28 00:34:25;;;;;;;4.85;4.38;;;10.20;99.90;;;;;;5075380;28;20040;-68
2023/10/28 00:36:52;;;;;;;4.82;4.20;;;10.30;99.90;;;;;;5075354;28;20094;-68
2023/10/28 00:39:18;;;;;;;5.65;5.07;;;10.20;99.90;;;;;;5075403;28;20037;-69
2023/10/28 00:41:44;;;;;;;4.78;4.38;;;10.20;99.90;;;;;;5073582;28;20059;-70
2023/10/28 00:44:10;;;;;;;5.55;5.05;;;10.20;99.90;;;;;;5075240;28;20037;-70
2023/10/28 00:46:36;;;;;;;5.57;5.07;;;10.20;99.90;;;;;;5073874;28;20515;-70
2023/10/28 00:49:02;;;;;;;6.30;5.70;;;10.20;99.90;;;;;;5075042;28;20460;-70
2023/10/28 00:51:28;;;;;;;6.07;5.47;;;10.20;99.90;;;;;;5075107;28;20480;-71
2023/10/28 00:53:55;;;;;;;6.10;5.60;;;10.20;99.90;;;;;;5074624;28;20089;-70
2023/10/28 00:56:21;;;;;;;6.28;5.65;;;10.20;99.90;;;;;;5073453;28;20040;-70
2023/10/28 00:58:47;;;;;;;6.20;5.60;;;10.20;99.90;;;;;;5073336;28;20549;-70
2023/10/28 01:01:14;;;;;;;5.55;5.05;;;10.20;99.90;;;;;;5073809;28;20047;-71
2023/10/28 01:03:40;;;;;;;5.88;5.35;;;10.20;99.90;;;;;;5074757;28;20106;-71
2023/10/28 01:06:09;;;;;;;6.75;6.15;;;10.10;99.90;;;;;;5074784;28;20135;-70
2023/10/28 01:08:35;;;;;;;5.43;4.90;;;10.20;99.90;;;;;;5056456;28;20044;-69
2023/10/28 01:11:01;;;;;;;6.18;5.65;;;10.20;99.90;;;;;;5073511;28;20040;-69
2023/10/28 01:13:27;;;;;;;6.43;5.75;;;10.20;99.90;;;;;;5073101;28;20441;-70
2023/10/28 01:15:53;;;;;;;6.30;5.32;;;10.30;99.90;;;;;;5074619;28;20092;-70
2023/10/28 01:18:18;;;;;;;5.88;5.38;;;10.20;99.90;;;;;;5073003;28;20071;-70
2023/10/28 01:20:44;;;;;;;6.45;5.85;;;10.30;99.90;;;;;;5074452;28;20430;-70
2023/10/28 01:23:10;;;;;;;5.43;4.82;;;10.20;99.90;;;;;;5072922;28;20047;-70
2023/10/28 01:25:35;;;;;;;5.80;5.25;;;10.30;99.90;;;;;;5072848;28;20476;-70
2023/10/28 01:28:01;;;;;;;7.40;5.88;;;10.20;99.90;;;;;;5072625;28;20171;-70
2023/10/28 01:30:27;;;;;;;6.38;5.78;;;10.30;99.90;;;;;;5074256;28;20468;-70
2023/10/28 01:32:53;;;;;;;6.43;5.82;;;11.00;99.90;;;;;;5056037;28;20044;-70
2023/10/28 01:35:18;;;;;;;6.35;5.65;;;10.30;99.90;;;;;;5072285;28;20044;-70
2023/10/28 01:37:44;;;;;;;6.10;5.55;;;10.30;99.90;;;;;;5074110;28;20036;-70
2023/10/28 01:40:13;;;;;;;6.00;5.50;;;10.20;99.90;;;;;;5074194;28;20488;-68
2023/10/28 01:42:40;;;;;;;5.53;5.03;;;10.20;99.90;;;;;;5039425;28;20062;-68
2023/10/28 01:45:06;;;;;;;5.90;5.32;;;10.20;99.90;;;;;;5074003;28;20159;-68
2023/10/28 01:47:33;;;;;;;5.57;5.07;;;10.20;99.90;;;;;;5072559;28;20127;-70
2023/10/28 01:49:59;;;;;;;5.45;4.95;;;11.10;99.90;;;;;;5072646;28;20086;-70
2023/10/28 01:52:24;;;;;;;5.22;4.72;;;10.10;99.90;;;;;;5072599;28;20063;-70
2023/10/28 01:54:51;;;;;;;5.72;5.22;;;10.10;99.90;;;;;;5073482;28;20040;-70
2023/10/28 01:57:17;;;;;;;6.38;5.43;;;10.10;99.90;;;;;;5072459;28;20115;-70
2023/10/28 01:59:44;;;;;;;5.30;4.80;;;10.00;99.90;;;;;;5073396;28;20573;-70
2023/10/28 02:02:10;;;;;;;5.30;4.80;;;10.10;99.90;;;;;;5073779;28;20047;-70
2023/10/28 02:04:36;;;;;;;5.85;5.35;;;10.00;99.90;;;;;;5055499;28;20044;-70
2023/10/28 02:07:04;;;;;;;4.97;4.53;;;10.00;99.90;;;;;;5073436;28;20042;-70
2023/10/28 02:09:33;;;;;;;5.22;4.75;;;10.00;99.90;;;;;;5073573;28;20103;-70
2023/10/28 02:12:01;;;;;;;5.22;4.72;;;10.10;99.90;;;;;;5072086;28;20041;-70
2023/10/28 02:14:27;;;;;;;5.38;4.97;;;10.00;99.90;;;;;;5073477;28;20044;-70
2023/10/28 02:16:54;;;;;;;4.70;4.30;;;10.00;99.90;;;;;;5073099;28;20033;-70
2023/10/28 02:19:21;;;;;;;5.72;5.22;;;10.00;99.90;;;;;;5089078;28;20115;-70
2023/10/28 02:21:48;;;;;;;5.10;4.60;;;10.20;99.90;;;;;;5073028;28;20489;-70
2023/10/28 02:24:13;;;;;;;5.03;4.57;;;11.40;99.90;;;;;;5073373;28;20040;-70
2023/10/28 02:26:39;;;;;;;5.18;4.68;;;9.90;99.90;;;;;;5073049;28;20035;-70
2023/10/28 02:29:06;;;;;;;5.20;4.57;;;9.90;99.90;;;;;;5071707;28;20040;-70
2023/10/28 02:31:32;;;;;;;4.68;4.25;;;9.90;99.90;;;;;;5073316;28;20036;-71
2023/10/28 02:33:57;;;;;;;5.75;4.88;;;9.90;99.90;;;;;;5073188;28;20040;-71
2023/10/28 02:36:25;;;;;;;4.70;4.18;;;9.90;99.90;;;;;;5088551;28;20051;-70
2023/10/28 02:38:50;;;;;;;4.20;3.83;;;9.80;99.90;;;;;;5072912;28;20044;-70
2023/10/28 02:41:16;;;;;;;5.03;4.53;;;9.80;99.90;;;;;;5073022;28;20068;-70
2023/10/28 02:43:42;;;;;;;4.65;4.25;;;9.80;99.90;;;;;;5073150;28;20044;-70
2023/10/28 02:46:08;;;;;;;4.32;3.92;;;9.80;99.90;;;;;;5072570;28;20048;-70
2023/10/28 02:48:34;;;;;;;4.97;4.57;;;9.70;99.90;;;;;;5071591;28;20045;-70
2023/10/28 02:51:06;;;;;;;4.90;4.50;;;9.70;99.90;;;;;;5072842;28;20508;-68
2023/10/28 02:53:33;;;;;;;4.47;4.07;;;9.80;99.90;;;;;;5088298;28;20094;-68
2023/10/28 02:56:03;;;;;;;4.68;4.28;;;9.80;99.90;;;;;;5072760;28;20045;-68
2023/10/28 02:58:29;;;;;;;4.07;3.67;;;9.80;99.90;;;;;;5088554;28;20565;-68
2023/10/28 03:00:57;;;;;;;4.63;4.22;;;9.80;99.90;;;;;;5071641;28;20119;-68
2023/10/28 03:03:26;;;;;;;4.15;3.67;;;9.80;99.90;;;;;;5071660;28;20044;-68
2023/10/28 03:05:51;;;;;;;4.80;4.35;;;9.80;99.90;;;;;;5071454;28;20032;-69
2023/10/28 03:08:18;;;;;;;4.88;3.80;;;9.70;99.90;;;;;;5071287;28;20041;-68
2023/10/28 03:10:44;;;;;;;4.50;4.10;;;9.70;99.90;;;;;;5071320;28;20037;-69
2023/10/28 03:13:10;;;;;;;4.88;4.38;;;9.70;99.90;;;;;;5071653;28;20070;-68
2023/10/28 03:15:36;;;;;;;5.32;4.32;;;9.70;99.90;;;;;;5071303;28;20044;-68
2023/10/28 03:18:02;;;;;;;3.90;3.50;;;9.70;99.90;;;;;;5071616;28;20490;-69
2023/10/28 03:20:27;;;;;;;4.10;3.67;;;9.80;99.90;;;;;;5071505;28;20080;-69
2023/10/28 03:22:53;;;;;;;3.65;3.28;;;10.80;99.90;;;;;;5072782;28;20097;-70
2023/10/28 03:25:18;;;;;;;4.30;3.85;;;9.70;99.90;;;;;;5072440;28;20471;-70
2023/10/28 03:27:46;;;;;;;4.68;3.95;;;9.80;99.90;;;;;;5072552;28;20051;-70
2023/10/28 03:30:12;;;;;;;3.92;3.53;;;10.10;99.90;;;;;;5071123;28;20098;-70
2023/10/28 03:32:37;;;;;;;4.10;3.38;;;9.70;99.90;;;;;;5072635;28;20036;-70
2023/10/28 03:35:03;;;;;;;4.32;3.80;;;9.70;99.90;;;;;;5071145;28;20072;-70
2023/10/28 03:37:31;;;;;;;4.13;3.72;;;9.70;99.90;;;;;;5072267;28;20400;-70
2023/10/28 03:39:57;;;;;;;3.75;3.35;;;9.70;99.90;;;;;;5071035;28;20048;-70
2023/10/28 03:42:22;;;;;;;4.00;3.60;;;9.70;99.90;;;;;;5072254;28;20542;-70
2023/10/28 03:44:48;;;;;;;4.50;3.53;;;9.70;99.90;;;;;;5070990;28;20032;-70
2023/10/28 03:47:14;;;;;;;4.15;3.75;;;9.70;99.90;;;;;;5072469;28;20097;-70
2023/10/28 03:49:39;;;;;;;3.53;3.13;;;9.70;99.90;;;;;;5072491;28;20037;-70
2023/10/28 03:52:05;;;;;;;4.03;3.63;;;10.10;99.90;;;;;;5072145;28;20536;-70
2023/10/28 03:54:31;;;;;;;4.20;3.63;;;9.70;99.90;;;;;;5070911;28;20040;-70
2023/10/28 03:56:56;;;;;;;3.70;3.22;;;9.80;99.90;;;;;;5073050;28;20029;-70
2023/10/28 03:59:22;;;;;;;4.70;4.25;;;9.70;99.90;;;;;;5076027;28;20037;-71
2023/10/28 04:01:47;;;;;;;8.40;3.95;;;9.70;99.90;;;;;;5076096;28;20040;-69
2023/10/28 04:04:13;;;;;;;4.22;3.35;;;9.80;99.90;;;;;;5074324;28;20051;-69
2023/10/28 04:06:38;;;;;;;3.97;2.95;;;9.80;99.90;;;;;;5075882;28;20492;-68
2023/10/28 04:09:07;;;;;;;4.03;3.47;;;11.00;99.90;;;;;;5075804;28;20427;-68
2023/10/28 04:11:33;;;;;;;3.85;3.00;;;9.80;99.90;;;;;;5075490;28;20060;-68
2023/10/28 04:13:58;;;;;;;5.32;3.25;;;9.80;99.90;;;;;;5075769;28;20032;-68
2023/10/28 04:16:25;;;;;;;3.67;3.30;;;9.80;99.90;;;;;;5075723;28;20040;-68
2023/10/28 04:18:52;;;;;;;5.25;3.28;;;11.30;99.90;;;;;;5074075;28;20048;-68
2023/10/28 04:21:17;;;;;;;4.10;3.10;;;9.80;99.90;;;;;;5075608;28;20041;-68
2023/10/28 04:23:43;;;;;;;4.43;3.42;;;9.80;99.90;;;;;;5075583;28;20457;-68
2023/10/28 04:26:09;;;;;;;4.28;3.17;;;9.80;99.90;;;;;;5074075;28;20041;-68
2023/10/28 04:28:34;;;;;;;4.97;3.10;;;9.80;99.90;;;;;;5074045;28;20048;-68
2023/10/28 04:31:00;;;;;;;3.75;3.20;;;9.80;99.90;;;;;;5075204;28;20083;-69
2023/10/28 04:33:26;;;;;;;5.43;3.50;;;9.80;99.90;;;;;;5073966;28;20420;-69
2023/10/28 04:35:53;;;;;;;3.80;3.17;;;9.80;99.90;;;;;;5075344;28;20032;-68
2023/10/28 04:38:21;;;;;;;4.57;3.55;;;9.90;99.90;;;;;;5075402;28;20045;-68
2023/10/28 04:40:48;;;;;;;3.50;3.17;;;9.80;99.90;;;;;;5075253;28;20493;-68
2023/10/28 04:43:14;;;;;;;3.42;2.85;;;9.90;99.90;;;;;;5074865;28;20059;-68
2023/10/28 04:45:43;;;;;;;3.00;2.70;;;10.20;99.90;;;;;;5073681;28;20052;-69
2023/10/28 04:48:15;;;;;;;4.20;3.45;;;9.90;99.90;;;;;;5074808;28;20037;-69
2023/10/28 04:50:41;;;;;;;4.55;3.30;;;9.90;99.90;;;;;;5090697;28;20053;-68
2023/10/28 04:53:07;;;;;;;3.53;2.95;;;9.90;99.90;;;;;;5073556;28;20039;-69
2023/10/28 04:55:33;;;;;;;4.50;3.03;;;9.90;99.90;;;;;;5074750;28;20079;-68
2023/10/28 04:57:59;;;;;;;4.05;2.97;;;9.90;99.90;;;;;;5074992;28;20075;-68
2023/10/28 05:00:25;;;;;;;3.53;2.97;;;9.90;99.90;;;;;;5074737;28;20051;-68
2023/10/28 05:02:51;;;;;;;4.20;3.53;;;9.90;99.90;;;;;;5074896;28;20052;-69
2023/10/28 05:05:17;;;;;;;3.63;2.97;;;9.90;99.90;;;;;;5073325;28;20033;-69
2023/10/28 05:07:43;;;;;;;4.00;3.50;;;9.90;99.90;;;;;;5072883;28;20143;-68
2023/10/28 05:10:09;;;;;;;4.85;3.83;;;9.90;99.90;;;;;;5090133;28;20520;-68
2023/10/28 05:12:38;;;;;;;3.60;3.30;;;9.90;99.90;;;;;;5074768;28;20037;-70
2023/10/28 05:15:08;;;;;;;4.10;3.45;;;9.90;99.90;;;;;;5073425;28;20032;-70
2023/10/28 05:17:37;;;;;;;3.55;3.13;;;9.90;99.90;;;;;;5056712;28;20055;-70
2023/10/28 05:20:07;;;;;;;3.40;2.95;;;9.90;99.90;;;;;;5072998;28;20412;-70
2023/10/28 05:22:37;;;;;;;4.70;3.30;;;9.90;99.90;;;;;;5072869;28;20140;-70
2023/10/28 05:25:09;;;;;;;3.78;2.78;;;9.90;99.90;;;;;;5073169;28;20040;-70
2023/10/28 05:27:35;;;;;;;3.85;3.33;;;9.90;99.90;;;;;;5072992;28;20037;-70
2023/10/28 05:30:01;;;;;;;4.25;3.42;;;10.60;99.90;;;;;;5073050;28;20044;-70
2023/10/28 05:32:27;;;;;;;3.95;2.85;;;9.90;99.90;;;;;;5074074;28;20064;-68
2023/10/28 05:34:52;;;;;;;3.50;3.20;;;10.00;99.90;;;;;;5056032;28;20079;-68
2023/10/28 05:37:18;;;;;;;5.18;3.35;;;10.00;99.90;;;;;;5073853;28;20481;-69
2023/10/28 05:39:44;;;;;;;5.18;3.00;;;10.00;99.90;;;;;;5074077;28;20036;-73
2023/10/28 05:42:14;;;;;;;4.55;3.13;;;9.90;99.90;;;;;;5072409;28;20060;-69
2023/10/28 05:44:40;;;;;;;3.35;2.40;;;10.30;99.90;;;;;;5072564;28;20102;-68
2023/10/28 05:47:07;;;;;;;3.92;3.03;;;10.00;99.90;;;;;;5072616;28;20055;-69
2023/10/28 05:49:33;;;;;;;3.70;2.80;;;10.00;99.90;;;;;;5072372;28;20411;-69
2023/10/28 05:51:59;;;;;;;2.88;2.53;;;10.00;99.90;;;;;;5072525;28;20043;-68
2023/10/28 05:54:25;;;;;;;3.47;2.67;;;10.00;99.90;;;;;;5073926;28;20041;-69
2023/10/28 05:56:50;;;;;;;4.32;2.90;;;10.00;99.90;;;;;;5073759;28;20044;-67
2023/10/28 05:59:16;;;;;;;3.45;2.17;;;10.00;99.90;;;;;;5073727;28;20128;-71
2023/10/28 06:01:42;;;;;;;3.33;2.90;;;10.00;99.90;;;;;;5073627;28;20036;-70
2023/10/28 06:04:09;;;;;;;4.00;2.80;;;10.00;99.90;;;;;;5072263;28;20049;-71
2023/10/28 06:06:35;;;;;;;5.25;2.85;;;10.00;99.90;;;;;;5072098;28;20040;-74
2023/10/28 06:09:01;;;;;;;4.15;3.13;;;10.00;99.90;;;;;;5072057;28;20036;-79
2023/10/28 06:11:27;;;;;;;2.90;2.60;;;10.40;99.90;;;;;;5071960;28;20089;-71
2023/10/28 06:13:53;;;;;;;2.83;2.55;;;10.00;99.90;;;;;;5071949;28;20044;-70
2023/10/28 06:16:19;;;;;;;2.70;2.30;;;10.10;99.90;;;;;;5055560;28;20036;-71
2023/10/28 06:18:45;;;;;;;3.65;2.88;;;10.00;99.90;;;;;;5071939;28;20154;-71
2023/10/28 06:21:11;;;;;;;3.08;2.45;;;10.10;99.90;;;;;;5072576;28;20037;-71
2023/10/28 06:23:39;;;;;;;2.53;2.10;;;10.10;99.90;;;;;;5073497;28;20082;-69
2023/10/28 06:26:07;;;;;;;3.55;2.85;;;10.10;99.90;;;;;;5055151;28;20045;-69
2023/10/28 06:28:33;;;;;;;3.25;2.85;;;10.40;99.90;;;;;;5073265;28;20040;-69
2023/10/28 06:30:59;;;;;;;4.63;3.10;;;10.10;99.90;;;;;;5071709;28;20037;-69
2023/10/28 06:33:24;;;;;;;3.15;2.40;;;10.10;99.90;;;;;;5088550;28;20044;-69
2023/10/28 06:35:50;;;;;;;1.80;1.70;;;10.10;99.90;;;;;;5072968;28;20400;-67
2023/10/28 06:38:17;;;;;;;2.38;2.13;;;10.10;99.90;;;;;;5071693;28;20416;-67
2023/10/28 06:40:43;;;;;;;3.03;2.20;;;10.10;99.90;;;;;;5088447;28;20090;-68
2023/10/28 06:43:09;;;;;;;3.72;1.92;;;10.10;99.90;;;;;;5072716;28;20109;-70
2023/10/28 06:45:35;;;;;;;4.13;2.28;;;10.10;99.90;;;;;;5071744;28;20467;-72
2023/10/28 06:48:01;;;;;;;2.10;1.90;;;10.20;99.90;;;;;;5071575;28;20036;-70
2023/10/28 06:50:27;;;;;;;2.53;2.03;;;10.10;99.90;;;;;;5072760;28;20032;-69
2023/10/28 06:52:53;;;;;;;2.10;1.50;;;10.20;99.90;;;;;;5071412;28;20124;-70
2023/10/28 06:55:18;;;;;;;1.75;1.60;;;10.20;99.90;;;;;;5071474;28;20075;-69
2023/10/28 06:57:44;;;;;;;2.55;1.77;;;10.30;99.90;;;;;;5072959;28;20032;-69
2023/10/28 07:00:15;;;;;;;1.80;1.70;;;11.00;99.90;;;;;;5072676;28;20408;-68
2023/10/28 07:02:42;;;;;;;2.25;1.70;;;10.20;99.90;;;;;;5055575;28;20045;-68
2023/10/28 07:05:08;;;;;;;1.83;1.60;;;10.20;99.90;;;;;;5072926;28;20081;-68
2023/10/28 07:07:35;;;;;;;2.13;1.80;;;10.30;99.90;;;;;;5071323;28;20044;-66
2023/10/28 07:10:01;;;;;;;1.92;1.70;;;10.30;99.90;;;;;;5071249;28;20032;-67
2023/10/28 07:12:28;;;;;;;2.85;1.75;;;10.30;99.90;;;;;;5071507;28;20452;-68
2023/10/28 07:14:58;;;;;;;2.05;1.52;;;10.30;99.90;;;;;;5072532;28;20102;-68
2023/10/28 07:17:23;;;;;;;1.60;1.48;;;10.30;99.90;;;;;;5072802;28;20052;-68
2023/10/28 07:19:49;;;;;;;2.10;1.50;;;10.40;99.90;;;;;;5072787;28;20036;-68
2023/10/28 07:22:22;;;;;;;3.00;1.60;;;10.30;99.90;;;;;;5072460;28;20041;-73
2023/10/28 07:24:49;;;;;;;1.48;1.38;;;10.30;99.90;;;;;;5071303;28;20443;-70
2023/10/28 07:27:15;;;;;;;1.70;1.60;;;10.30;99.90;;;;;;5071100;28;20080;-68
2023/10/28 07:29:41;;;;;;;1.63;1.52;;;10.30;99.90;;;;;;5072690;28;20099;-68
2023/10/28 07:32:06;;;;;;;1.27;1.17;;;10.30;99.90;;;;;;5073652;28;20038;-67
2023/10/28 07:34:32;;;;;;;1.30;1.20;;;10.40;99.90;;;;;;5076710;28;20040;-68
2023/10/28 07:37:03;;;;;;;1.90;1.70;;;10.40;99.90;;;;;;5076365;28;20115;-68
2023/10/28 07:39:29;;;;;;;;;;;10.40;99.90;;;;;;5076602;28;20477;-68
2023/10/28 07:41:55;;;;;;;1.85;1.30;;;10.40;99.90;;;;;;5076086;28;19946;-74
2023/10/28 07:44:21;;;;;;;2.13;1.40;;;10.40;99.90;;;;;;5074791;28;20123;-67
2023/10/28 07:46:46;;;;;;;1.30;1.10;;;10.40;99.90;;;;;;5058035;28;20089;-67
2023/10/28 07:49:12;;;;;;;1.35;1.15;;;10.50;99.90;;;;;;5076104;28;20086;-68
2023/10/28 07:51:39;;;;;;;1.55;1.35;;;10.50;99.90;;;;;;5074658;28;20120;-79
2023/10/28 07:54:06;;;;;;;1.60;1.50;;;10.50;99.90;;;;;;5074521;28;20040;-68
2023/10/28 07:56:32;;;;;;;1.20;1.08;;;10.50;99.90;;;;;;5076036;28;20059;-70
2023/10/28 07:58:59;;;;;;;1.02;1.00;;;10.60;99.90;;;;;;5074579;28;20337;-68
2023/10/28 08:01:29;;;;;;;1.73;1.25;;;10.60;99.90;;;;;;5074597;28;20484;-70
2023/10/28 08:03:58;;;;;;;2.88;1.80;;;11.40;99.90;;;;;;5057639;28;20036;-66
2023/10/28 08:06:24;;;;;;;1.90;1.23;;;10.80;99.90;;;;;;5074642;28;20492;-66
2023/10/28 08:08:53;;;;;;;1.65;1.10;;;10.80;99.90;;;;;;5075485;28;20052;-66
2023/10/28 08:11:20;;;;;;;1.35;1.20;;;11.10;99.90;;;;;;5074566;28;20127;-66
2023/10/28 08:13:47;;;;;;;1.13;1.00;;;11.30;99.90;;;;;;5075767;28;20032;-66
2023/10/28 08:16:18;;;;;;;2.15;1.48;;;10.90;99.90;;;;;;5075692;28;20043;-66
2023/10/28 08:18:44;;;;;;;1.77;0.95;;;10.80;99.90;;;;;;5075733;28;20041;-67
2023/10/28 08:21:10;;;;;;;1.27;0.90;;;10.80;99.90;;;;;;5075650;28;20408;-66
2023/10/28 08:23:39;;;;;;;1.00;0.85;;;11.00;99.90;;;;;;5075593;28;20044;-66
2023/10/28 08:26:08;;;;;;;1.17;1.05;;;11.20;99.90;;;;;;5075528;28;20050;-66
2023/10/28 08:28:33;;;;;;;1.20;1.10;;;10.90;99.90;;;;;;5075442;28;20050;-66
2023/10/28 08:30:59;;;;;;;2.28;1.23;;;10.80;99.90;;;;;;5075214;28;20555;-66
2023/10/28 08:33:25;;;;;;;0.90;0.90;;;11.00;99.90;;;;;;5075395;28;20081;-67
2023/10/28 08:35:51;;;;;;;1.02;0.80;;;10.80;99.90;;;;;;5074151;28;20512;-67
2023/10/28 08:38:17;;;;;;;0.85;0.77;;;10.90;99.90;;;;;;5075270;28;20485;-67
2023/10/28 08:40:46;;;;;;;1.42;1.15;;;10.80;99.90;;;;;;5075261;28;20049;-67
2023/10/28 08:43:14;;;;;;;0.98;0.98;;;10.90;99.90;;;;;;5074446;28;20056;-69
2023/10/28 08:45:42;;;;;;;1.00;0.95;;;11.00;99.90;;;;;;5075165;28;20477;-68
2023/10/28 08:48:10;;;;;;;0.80;0.80;;;11.00;99.90;;;;;;5074770;28;20050;-68
2023/10/28 08:50:38;;;;;;;1.13;1.02;;;11.00;99.90;;;;;;5075084;28;20044;-69
2023/10/28 08:53:04;;;;;;;0.93;0.85;;;11.00;99.90;;;;;;5075207;28;20063;-67
2023/10/28 08:55:31;;;;;;;1.00;0.98;;;11.10;99.90;;;;;;5074684;28;20119;-67
2023/10/28 08:57:57;;;;;;;1.17;0.88;;;11.30;99.90;;;;;;5074686;28;20385;-66
2023/10/28 09:00:25;;;;;;;0.93;0.88;;;;;;;;;;5074894;28;20082;-66
2023/10/28 09:02:52;;;;;;;1.08;0.90;;;11.30;99.90;;;;;;5074567;28;20049;-69
2023/10/28 09:05:19;;;;;;;3.95;1.20;;;11.40;99.90;;;;;;5074698;28;20032;-68
2023/10/28 09:07:46;;;;;;;2.60;0.98;;;;;;;;;;5074532;28;20500;-69
2023/10/28 09:10:12;;;;;;;1.83;0.80;;;;;;;;;;5056468;28;20074;-68
2023/10/28 09:12:39;;;;;;;0.93;0.85;;;;;;;;;;5074665;28;20051;-66
2023/10/28 09:15:05;;;;;;;4.60;1.80;;;;;;;;;;5072985;28;20044;-67
2023/10/28 09:17:31;;;;;;;0.98;0.70;;;;;;;;;;5074451;28;20085;-66
2023/10/28 09:19:57;;;;;;;1.00;0.80;;;;;;;;;;5072863;28;20123;-66
2023/10/28 09:22:24;;;;;;;1.92;1.45;;;;;;;;;;5074395;28;20097;-67
2023/10/28 09:24:54;;;;;;;0.68;0.68;;;;;;;;;;5074434;28;20048;-67
2023/10/28 09:27:21;;;;;;;1.65;1.00;;;;;;;;;;5074263;28;20091;-68
2023/10/28 09:29:47;;;;;;;0.93;0.85;;;;;;;;;;5073965;28;20385;-67
2023/10/28 09:32:13;;;;;;;1.38;0.95;;;;;;;;;;5074210;28;20052;-68
2023/10/28 09:34:40;;;;;;;0.70;0.70;;;;;;;;;;5073835;28;20056;-67
2023/10/28 09:37:06;;;;;;;0.80;0.70;;;;;;;;;;5072832;28;20040;-67
2023/10/28 09:39:36;;;;;;;1.40;1.00;;;;;;;;;;5072748;28;20037;-69
2023/10/28 09:42:03;;;;;;;0.85;0.82;;;;;;;;;;5073480;28;20092;-68
2023/10/28 09:44:29;;;;;;;8.35;7.90;;;;;;;;;;5073779;28;20040;-68
2023/10/28 09:47:00;;;;;;;1.38;1.10;;;11.60;99.90;;;;;;5073582;28;20127;-67
2023/10/28 09:49:30;;;;;;;1.48;0.93;;;11.60;99.90;;;;;;5073729;28;20095;-66
2023/10/28 09:52:05;;;;;;;1.00;0.88;;;12.00;99.90;;;;;;5073693;28;20037;-67
2023/10/28 09:54:37;;;;;;;0.85;0.70;;;11.60;99.90;;;;;;5071917;28;20032;-67
2023/10/28 09:57:07;;;;;;;0.75;0.73;;;11.70;99.90;;;;;;5073766;28;20543;-67
2023/10/28 09:59:37;;;;;;;2.42;1.20;;;12.30;99.90;;;;;;5073395;28;20046;-67
2023/10/28 10:02:11;;;;;;;1.48;1.02;;;11.80;99.90;;;;;;5073305;28;20051;-67
2023/10/28 10:04:51;;;;;;;5.07;1.65;;;11.80;99.90;;;;;;5073389;28;20033;-67
2023/10/28 10:07:17;;;;;;;1.17;0.90;;;11.90;99.90;;;;;;5073141;28;20039;-67
2023/10/28 10:09:44;;;;;;;1.10;1.00;;;11.90;99.90;;;;;;5071924;28;20123;-67
2023/10/28 10:12:11;;;;;;;1.13;0.90;;;12.00;99.90;;;;;;5071865;28;20050;-67
2023/10/28 10:14:41;;;;;;;0.88;0.85;;;11.90;99.90;;;;;;5073535;28;20029;-67
2023/10/28 10:17:36;;;;;;;1.52;0.90;;;12.00;99.90;;;;;;5073165;28;20507;-67
2023/10/28 10:20:04;;;;;;;0.68;0.60;;;12.00;99.90;;;;;;5073456;28;20127;-66
2023/10/28 10:22:30;;;;;;;0.75;0.75;;;12.30;99.90;;;;;;5073132;28;20488;-67
2023/10/28 10:24:56;;;;;;;0.95;0.90;;;12.00;99.90;;;;;;5071773;28;20097;-67
2023/10/28 10:27:36;;;;;;;1.80;1.20;;;11.90;99.90;;;;;;5071602;28;20036;-66
2023/10/28 10:30:09;;;;;;;1.02;0.93;;;11.70;99.90;;;;;;5073235;28;20473;-67
2023/10/28 10:32:48;;;;;;;1.10;1.02;;;11.80;99.90;;;;;;5072904;28;20040;-67
2023/10/28 10:35:28;;;;;;;1.35;0.82;;;11.70;99.90;;;;;;5073263;28;20036;-67
2023/10/28 10:38:06;;;;;;;1.77;1.27;;;11.70;99.90;;;;;;5073134;28;20048;-68
2023/10/28 10:40:52;;;;;;;2.40;0.90;;;12.20;99.90;;;;;;5073186;28;20044;-68
2023/10/28 10:43:21;;;;;;;1.10;1.00;;;11.70;99.90;;;;;;5071520;28;20459;-66
2023/10/28 10:45:48;;;;;;;1.20;0.88;;;12.00;99.90;;;;;;5071409;28;20048;-67
2023/10/28 10:48:16;;;;;;;1.45;1.00;;;11.80;99.90;;;;;;5072956;28;20048;-67
2023/10/28 10:50:43;;;;;;;0.85;0.68;;;12.00;99.90;;;;;;5072719;28;20051;-66
2023/10/28 10:53:08;;;;;;;0.98;0.82;;;11.80;99.90;;;;;;5072953;28;20032;-66
2023/10/28 10:55:34;;;;;;;1.50;0.80;;;12.00;99.90;;;;;;5072966;28;20033;-66
2023/10/28 10:58:00;;;;;;;0.85;0.70;;;12.00;99.90;;;;;;5073054;28;20040;-66
2023/10/28 11:00:26;;;;;;;1.35;0.90;;;12.00;99.90;;;;;;5088249;28;20087;-67
2023/10/28 11:02:57;;;;;;;1.45;0.85;;;12.00;99.90;;;;;;5071422;28;20116;-67
2023/10/28 11:05:22;;;;;;;0.98;0.82;;;12.00;99.90;;;;;;5071603;28;20544;-65
2023/10/28 11:07:48;;;;;;;1.73;1.05;;;11.90;99.90;;;;;;5075300;28;20127;-65
2023/10/28 11:10:14;;;;;;;0.68;0.68;;;12.00;99.90;;;;;;5075462;28;20044;-66
2023/10/28 11:12:41;;;;;;;1.73;0.95;;;12.00;99.90;;;;;;5077003;28;20037;-65
2023/10/28 11:15:08;;;;;;;1.20;0.82;;;12.00;99.90;;;;;;5076610;28;20028;-65
2023/10/28 11:17:34;;;;;;;0.93;0.70;;;12.00;99.90;;;;;;5076564;28;20054;-65
2023/10/28 11:20:02;;;;;;;1.05;0.95;;;11.90;99.90;;;;;;5076545;28;20040;-66
2023/10/28 11:22:28;;;;;;;2.75;1.20;;;12.00;99.90;;;;;;5076539;28;20123;-65
2023/10/28 11:24:57;;;;;;;1.33;0.88;;;12.10;99.90;;;;;;5076794;28;20136;-66
2023/10/28 11:27:26;;;;;;;1.00;0.90;;;12.10;99.90;;;;;;5076505;28;20158;-65
2023/10/28 11:29:53;;;;;;;0.60;0.60;;;12.30;99.90;;;;;;5076276;28;20037;-68
2023/10/28 11:32:22;;;;;;;0.80;0.80;;;12.30;99.90;;;;;;5076288;28;20044;-66
2023/10/28 11:34:47;;;;;;;0.70;0.70;;;12.40;99.90;;;;;;5076379;28;20029;-69
2023/10/28 11:37:13;;;;;;;0.63;0.63;;;12.80;99.90;;;;;;5076509;28;20387;-65
2023/10/28 11:39:39;;;;;;;1.25;0.88;;;12.40;99.90;;;;;;5076416;28;20039;-68
2023/10/28 11:42:12;;;;;;;1.17;1.05;;;12.40;99.90;;;;;;5074681;28;20053;-66
2023/10/28 11:44:46;;;;;;;0.70;0.65;;;12.50;99.90;;;;;;5075139;28;20040;-66
2023/10/28 11:47:12;;;;;;;0.63;0.63;;;13.00;99.90;;;;;;5058310;28;20047;-69
2023/10/28 11:49:37;;;;;;;1.67;0.88;;;12.50;99.90;;;;;;5091625;28;20048;-66
2023/10/28 11:52:04;;;;;;;0.70;0.70;;;12.50;99.90;;;;;;5075921;28;20055;-66
2023/10/28 11:54:30;;;;;;;1.05;0.60;;;12.50;99.90;;;;;;5076160;28;20120;-66
2023/10/28 11:56:56;;;;;;;0.80;0.75;;;;;;;;;;5076180;28;20144;-66
2023/10/28 11:59:23;;;;;;;1.52;1.13;;;;;;;;;;5076094;28;20086;-67
2023/10/28 12:01:50;;;;;;;1.42;0.80;;;;;;;;;;5076089;28;20438;-69
2023/10/28 12:04:16;;;;;;;1.38;1.05;;;;;;;;;;5076017;28;20040;-67
2023/10/28 12:06:42;;;;;;;0.93;0.60;;;;;;;;;;5075951;28;20476;-67
2023/10/28 12:09:12;;;;;;;1.10;0.68;;;;;;;;;;5074297;28;20049;-67
2023/10/28 12:11:38;;;;;;;3.22;0.82;;;;;;;;;;5075864;28;20037;-66
2023/10/28 12:14:07;;;;;;;1.17;0.70;;;;;;;;;;5075730;28;20123;-67
2023/10/28 12:16:35;;;;;;;1.35;0.90;;;;;;;;;;5075446;28;20048;-67
2023/10/28 12:19:01;;;;;;;1.05;0.93;;;;;;;;;;5074867;28;20048;-67
2023/10/28 12:21:28;;;;;;;1.02;0.80;;;;;;;;;;5075388;28;20106;-67
2023/10/28 12:23:54;;;;;;;0.68;0.68;;;;;;;;;;5075646;28;20040;-67
2023/10/28 12:26:20;;;;;;;1.17;0.90;;;;;;;;;;5075678;28;20048;-67
2023/10/28 12:28:48;;;;;;;0.63;0.63;;;;;;;;;;5074002;28;20037;-67
2023/10/28 12:31:14;;;;;;;1.00;0.70;;;;;;;;;;5075532;28;20048;-67
2023/10/28 12:33:41;;;;;;;1.10;0.95;;;;;;;;;;5075295;28;20037;-66
2023/10/28 12:36:08;;;;;;;0.90;0.65;;;;;;;;;;5075387;28;20036;-67
2023/10/28 12:38:35;;;;;;;1.15;0.65;;;;;;;;;;5075343;28;20111;-67
2023/10/28 12:41:01;;;;;;;2.25;1.20;;;;;;;;;;5075169;28;20040;-67
2023/10/28 12:43:30;;;;;;;1.73;0.98;;;;;;;;;;5075360;28;20060;-66
2023/10/28 12:45:56;;;;;;;1.20;0.90;;;;;;;;;;5075289;28;20076;-67
2023/10/28 12:48:22;;;;;;;1.73;0.77;;;;;;;;;;5074800;28;20146;-67
2023/10/28 12:50:48;;;;;;;1.08;0.70;;;;;;;;;;5074831;28;20039;-67
2023/10/28 12:53:14;;;;;;;0.70;0.70;;;;;;;;;;5075082;28;20512;-66
2023/10/28 12:55:41;;;;;;;0.63;0.63;;;;;;;;;;5056982;28;20125;-67
2023/10/28 12:58:10;;;;;;;2.13;0.88;;;;;;;;;;5073774;28;20073;-67
2023/10/28 13:00:40;;;;;;;0.60;0.50;;;;;;;;;;5074944;28;20044;-66